Time;durP1;ratioP1;P1;durP2;ratioP2;P2;SDS_P1;SDS_P2;PMS_P1;PMS_P2;Temp;Humidity;BMP_temperature;BMP_pressure;BME280_temperature;BME280_humidity;BME280_pressure;Samples;Min_cycle;Max_cycle;Signal;HPM_P1;HPM_P2
2021/01/01 00:00:15;;;;;;;97.27;47.13;;;;;;;1.73;87.10;99621.86;1777892;80;25693;-49
2021/01/01 00:02:44;;;;;;;101.95;49.15;;;;;;;1.72;87.08;99619.46;1788525;78;25761;-51
2021/01/01 00:05:18;;;;;;;99.40;48.83;;;;;;;1.70;87.06;99627.72;1791841;78;27165;-51
2021/01/01 00:07:45;;;;;;;104.83;49.38;;;;;;;1.68;87.08;99625.31;1796594;79;25788;-50
2021/01/01 00:10:15;;;;;;;114.55;52.17;;;;;;;1.68;87.17;99626.66;1780730;78;25659;-49
2021/01/01 00:12:42;;;;;;;108.78;51.00;;;;;;;1.66;87.13;99624.79;1795458;79;32443;-48
2021/01/01 00:15:11;;;;;;;105.35;53.90;;;;;;;1.65;87.14;99625.88;1784895;79;25605;-48
2021/01/01 00:17:38;;;;;;;112.30;54.80;;;;;;;1.65;87.13;99624.54;1780907;79;26332;-50
2021/01/01 00:20:10;;;;;;;106.90;52.00;;;;;;;1.64;87.16;99618.93;1780406;80;26067;-48
2021/01/01 00:22:37;;;;;;;107.30;51.50;;;;;;;1.64;87.17;99617.59;1776732;80;25705;-47
2021/01/01 00:25:05;;;;;;;105.40;52.17;;;;;;;1.64;87.19;99629.59;1781083;80;25592;-48
2021/01/01 00:27:33;;;;;;;94.75;46.40;;;;;;;1.63;87.20;99630.65;1780963;80;25718;-49
2021/01/01 00:29:59;;;;;;;84.13;41.63;;;;;;;1.63;87.17;99629.31;1780875;80;26657;-46
2021/01/01 00:32:26;;;;;;;75.10;37.23;;;;;;;1.63;87.00;99631.19;1780929;80;25708;-48
2021/01/01 00:34:53;;;;;;;64.95;33.20;;;;;;;1.62;86.92;99633.61;1780830;80;25719;-49
2021/01/01 00:37:20;;;;;;;65.32;33.02;;;;;;;1.61;86.59;99639.45;1780948;80;25654;-49
2021/01/01 00:39:47;;;;;;;68.97;34.75;;;;;;;1.60;86.45;99638.38;1780963;80;25678;-48
2021/01/01 00:42:14;;;;;;;76.87;37.83;;;;;;;1.59;86.50;99641.59;1780515;80;27157;-47
2021/01/01 00:44:41;;;;;;;96.97;50.30;;;;;;;1.60;86.54;99647.20;1780784;80;26348;-48
2021/01/01 00:47:12;;;;;;;109.05;53.13;;;;;;;1.60;86.61;99645.87;1781021;80;25653;-47
2021/01/01 00:49:39;;;;;;;140.85;72.82;;;;;;;1.60;86.64;99643.71;1781044;80;25743;-46
2021/01/01 00:52:06;;;;;;;114.95;57.55;;;;;;;1.60;86.74;99641.87;1781119;80;25690;-50
2021/01/01 00:54:33;;;;;;;111.32;54.20;;;;;;;1.61;86.83;99648.78;1781018;80;26354;-46
2021/01/01 00:56:59;;;;;;;102.55;53.25;;;;;;;1.61;86.83;99643.99;1780876;80;26393;-48
2021/01/01 00:59:28;;;;;;;111.95;54.70;;;;;;;1.62;86.82;99644.27;1781008;80;25622;-43
2021/01/01 01:01:55;;;;;;;109.27;54.15;;;;;;;1.62;86.80;99640.27;1781047;80;25647;-50
2021/01/01 01:04:22;;;;;;;115.25;56.45;;;;;;;1.60;86.73;99639.20;1781025;80;25754;-47
2021/01/01 01:06:49;;;;;;;110.40;54.93;;;;;;;1.59;86.74;99642.92;1780860;80;25964;-46
2021/01/01 01:09:16;;;;;;;88.15;43.63;;;;;;;1.59;86.77;99637.59;1780715;80;25727;-47
2021/01/01 01:11:43;;;;;;;71.80;34.80;;;;;;;1.59;86.59;99646.12;1780998;80;25747;-45
2021/01/01 01:14:10;;;;;;;64.97;33.67;;;;;;;1.59;86.49;99644.25;1780616;80;25697;-50
2021/01/01 01:16:37;;;;;;;72.53;37.83;;;;;;;1.58;86.22;99649.30;1778043;80;25639;-46
2021/01/01 01:19:04;;;;;;;89.62;44.50;;;;;;;1.58;86.23;99648.52;1778024;80;26413;-47
2021/01/01 01:21:31;;;;;;;85.25;44.80;;;;;;;1.55;86.07;99648.52;1777961;80;25790;-49
2021/01/01 01:23:57;;;;;;;99.67;49.75;;;;;;;1.55;86.10;99642.37;1777900;80;25732;-48
2021/01/01 01:26:24;;;;;;;99.97;50.83;;;;;;;1.52;86.10;99646.38;1777963;80;25654;-46
2021/01/01 01:28:51;;;;;;;104.43;52.62;;;;;;;1.52;86.12;99645.05;1778015;80;25666;-50
2021/01/01 01:31:18;;;;;;;110.92;54.55;;;;;;;1.47;86.17;99637.84;1778092;80;26396;-48
2021/01/01 01:33:45;;;;;;;95.45;49.15;;;;;;;1.51;86.17;99651.44;1777936;80;25828;-47
2021/01/01 01:36:13;;;;;;;94.28;48.58;;;;;;;1.51;86.20;99647.98;1778001;80;25654;-47
2021/01/01 01:38:39;;;;;;;85.45;45.52;;;;;;;1.50;86.15;99644.52;1777950;80;26388;-46
2021/01/01 01:41:06;;;;;;;84.47;45.95;;;;;;;1.51;86.12;99642.11;1778177;80;25648;-49
2021/01/01 01:43:33;;;;;;;81.82;43.73;;;;;;;1.48;86.03;99642.63;1778059;80;26954;-50
2021/01/01 01:46:00;;;;;;;89.87;44.20;;;;;;;1.48;85.95;99645.29;1777865;80;25819;-49
2021/01/01 01:48:34;;;;;;;83.80;41.10;;;;;;;1.46;86.05;99642.92;1778006;80;25495;-49
2021/01/01 01:51:11;;;;;;;85.38;42.78;;;;;;;1.55;85.99;99646.38;1846718;76;33831;-47
2021/01/01 01:53:44;;;;;;;82.60;41.53;;;;;;;1.47;85.96;99646.38;1817124;78;25664;-49
2021/01/01 01:56:12;;;;;;;84.03;42.67;;;;;;;1.46;85.94;99643.43;1817205;78;25689;-47
2021/01/01 01:58:41;;;;;;;84.72;42.53;;;;;;;1.45;85.84;99647.17;1817120;78;25705;-49
2021/01/01 02:01:07;;;;;;;80.65;42.35;;;;;;;1.45;85.92;99641.84;1817043;78;25634;-48
2021/01/01 02:03:34;;;;;;;77.67;40.43;;;;;;;1.43;85.88;99647.44;1817029;78;25638;-46
2021/01/01 02:06:02;;;;;;;88.27;43.17;;;;;;;1.44;85.79;99645.56;1817028;78;25632;-50
2021/01/01 02:08:29;;;;;;;86.75;43.45;;;;;;;1.43;85.85;99640.77;1817000;78;26640;-50
2021/01/01 02:10:58;;;;;;;86.63;43.58;;;;;;;1.43;85.86;99638.62;1817020;78;25716;-47
2021/01/01 02:13:26;;;;;;;88.97;43.30;;;;;;;1.45;85.87;99644.52;1817372;78;26222;-49
2021/01/01 02:15:53;;;;;;;87.57;44.25;;;;;;;1.42;85.84;99640.50;1816927;78;25694;-48
2021/01/01 02:18:41;;;;;;;83.80;42.55;;;;;;;1.43;85.89;99645.28;1817171;78;25697;-49
2021/01/01 02:21:14;;;;;;;91.02;43.60;;;;;;;1.42;85.83;99641.83;1817138;78;27269;-51
2021/01/01 02:23:41;;;;;;;81.10;42.53;;;;;;;1.41;85.77;99634.09;1816925;78;25720;-51
2021/01/01 02:26:08;;;;;;;88.10;44.08;;;;;;;1.40;85.77;99638.62;1817102;78;26378;-45
2021/01/01 02:28:34;;;;;;;87.85;46.45;;;;;;;1.40;85.77;99641.30;1816979;78;25701;-50
2021/01/01 02:31:01;;;;;;;92.78;45.40;;;;;;;1.41;85.97;99642.87;1816988;78;25727;-50
2021/01/01 02:33:28;;;;;;;84.30;44.15;;;;;;;1.42;86.08;99637.04;1816963;78;25959;-50
2021/01/01 02:35:55;;;;;;;81.42;40.50;;;;;;;1.41;85.89;99641.55;1816610;78;25704;-49
2021/01/01 02:38:21;;;;;;;87.78;42.98;;;;;;;1.42;85.87;99643.70;1817001;78;25669;-49
2021/01/01 02:40:48;;;;;;;83.50;41.98;;;;;;;1.41;85.79;99642.87;1816966;78;25618;-48
2021/01/01 02:43:15;;;;;;;73.47;35.95;;;;;;;1.40;85.76;99643.96;1817009;78;25747;-50
2021/01/01 02:45:43;;;;;;;65.55;33.67;;;;;;;1.38;85.35;99635.95;1816920;78;26297;-43
2021/01/01 02:48:16;;;;;;;66.90;32.42;;;;;;;1.33;85.12;99642.09;1816954;78;25660;-47
2021/01/01 02:50:44;;;;;;;63.30;32.48;;;;;;;1.31;84.89;99638.86;1823231;78;25664;-45
2021/01/01 02:53:11;;;;;;;65.00;32.13;;;;;;;1.29;84.94;99642.33;1826382;78;25780;-47
2021/01/01 02:55:39;;;;;;;66.17;34.35;;;;;;;1.24;84.71;99637.81;1826852;78;25425;-45
2021/01/01 02:58:07;;;;;;;70.10;36.17;;;;;;;1.22;84.78;99636.45;1826792;78;25752;-45
2021/01/01 03:00:37;;;;;;;75.52;34.45;;;;;;;1.21;84.87;99640.99;1826579;78;25732;-45
2021/01/01 03:03:05;;;;;;;68.05;34.05;;;;;;;1.19;84.85;99639.64;1826316;78;25720;-45
2021/01/01 03:05:32;;;;;;;71.42;34.75;;;;;;;1.18;84.88;99636.19;1826238;78;25580;-44
2021/01/01 03:07:58;;;;;;;65.97;34.05;;;;;;;1.17;84.88;99634.57;1826339;78;25656;-45
2021/01/01 03:10:25;;;;;;;66.20;32.45;;;;;;;1.16;84.88;99638.83;1826241;78;25960;-47
2021/01/01 03:12:52;;;;;;;61.53;32.93;;;;;;;1.15;84.82;99639.91;1826146;78;26014;-48
2021/01/01 03:15:19;;;;;;;62.65;32.53;;;;;;;1.13;84.69;99637.50;1826179;78;25534;-47
2021/01/01 03:17:46;;;;;;;60.95;32.15;;;;;;;1.08;84.60;99643.61;1826186;78;25637;-50
2021/01/01 03:20:14;;;;;;;62.53;30.30;;;;;;;1.08;84.86;99639.61;1826290;78;25629;-45
2021/01/01 03:22:40;;;;;;;55.30;26.97;;;;;;;1.10;84.96;99642.02;1826235;78;25890;-49
2021/01/01 03:25:09;;;;;;;50.95;26.93;;;;;;;1.08;84.92;99636.95;1826108;78;25565;-47
2021/01/01 03:27:36;;;;;;;57.88;27.52;;;;;;;1.07;84.76;99636.70;1826240;78;25633;-43
2021/01/01 03:30:06;;;;;;;54.50;28.83;;;;;;;1.05;84.54;99636.13;1826223;78;25700;-49
2021/01/01 03:32:34;;;;;;;56.33;27.58;;;;;;;1.04;84.57;99641.20;1826211;78;26237;-45
2021/01/01 03:35:01;;;;;;;55.12;29.07;;;;;;;1.02;84.63;99646.00;1826170;78;26277;-46
2021/01/01 03:37:27;;;;;;;54.33;28.23;;;;;;;1.01;84.58;99652.38;1826087;78;25680;-45
2021/01/01 03:39:54;;;;;;;58.02;28.52;;;;;;;1.00;84.63;99646.77;1826146;78;25634;-45
2021/01/01 03:42:21;;;;;;;56.18;29.82;;;;;;;0.99;84.69;99653.17;1826306;78;25673;-47
2021/01/01 03:44:47;;;;;;;53.98;28.12;;;;;;;0.97;84.62;99645.16;1826278;78;25673;-46
2021/01/01 03:47:14;;;;;;;59.38;29.70;;;;;;;0.96;84.74;99655.02;1825968;78;26137;-47
2021/01/01 03:49:41;;;;;;;57.65;28.23;;;;;;;0.91;84.62;99647.02;1824884;78;25740;-45
2021/01/01 03:52:08;;;;;;;60.35;29.35;;;;;;;0.93;84.65;99652.33;1816989;78;25616;-47
2021/01/01 03:54:34;;;;;;;57.00;29.37;;;;;;;0.92;84.68;99646.76;1816833;78;25632;-47
2021/01/01 03:57:01;;;;;;;54.50;27.93;;;;;;;0.91;84.58;99650.47;1816965;78;25659;-47
2021/01/01 03:59:28;;;;;;;60.08;28.65;;;;;;;0.88;84.47;99648.32;1816924;78;26199;-46
2021/01/01 04:01:54;;;;;;;57.55;29.23;;;;;;;0.87;84.39;99648.58;1816842;78;25684;-47
2021/01/01 04:04:21;;;;;;;57.62;27.70;;;;;;;0.86;84.59;99653.11;1816961;78;25704;-47
2021/01/01 04:06:48;;;;;;;60.10;28.80;;;;;;;0.86;84.65;99653.11;1816922;78;25597;-47
2021/01/01 04:09:15;;;;;;;57.75;28.98;;;;;;;0.86;84.77;99650.98;1816885;78;25757;-46
2021/01/01 04:11:41;;;;;;;55.52;27.37;;;;;;;0.86;84.82;99650.45;1816823;78;27376;-48
2021/01/01 04:14:08;;;;;;;54.00;26.35;;;;;;;0.87;84.87;99648.58;1816552;78;25756;-47
2021/01/01 04:16:35;;;;;;;57.13;28.70;;;;;;;0.87;84.84;99652.06;1816720;78;25636;-45
2021/01/01 04:19:02;;;;;;;57.83;28.67;;;;;;;0.87;84.83;99649.40;1784995;78;25689;-47
2021/01/01 04:21:28;;;;;;;58.13;29.50;;;;;;;0.87;84.90;99650.73;1816669;78;25728;-48
2021/01/01 04:23:55;;;;;;;52.85;27.82;;;;;;;0.87;84.82;99653.39;1816866;78;26160;-48
2021/01/01 04:26:25;;;;;;;58.45;29.75;;;;;;;0.86;84.87;99653.11;1816876;78;25604;-48
2021/01/01 04:28:51;;;;;;;59.85;29.72;;;;;;;0.86;84.90;99654.44;1817049;78;25983;-47
2021/01/01 04:31:18;;;;;;;55.38;27.62;;;;;;;0.86;84.88;99651.78;1816862;78;25743;-48
2021/01/01 04:33:45;;;;;;;54.45;27.95;;;;;;;0.88;84.93;99654.98;1816908;78;25566;-49
2021/01/01 04:36:12;;;;;;;53.25;27.90;;;;;;;0.87;84.85;99660.05;1816954;78;26173;-47
2021/01/01 04:38:39;;;;;;;58.00;28.38;;;;;;;0.86;84.78;99657.11;1816884;78;25751;-44
2021/01/01 04:41:10;;;;;;;56.02;27.65;;;;;;;0.86;84.90;99665.63;1816681;78;25561;-48
2021/01/01 04:43:37;;;;;;;53.00;27.75;;;;;;;0.86;84.93;99667.75;1816659;78;25647;-46
2021/01/01 04:46:06;;;;;;;51.42;27.15;;;;;;;0.86;84.84;99668.30;1816958;78;25586;-48
2021/01/01 04:48:32;;;;;;;60.90;28.40;;;;;;;0.85;84.80;99668.84;1816153;78;25701;-46
2021/01/01 04:50:59;;;;;;;53.98;26.20;;;;;;;0.84;84.75;99671.75;1821476;78;25653;-49
2021/01/01 04:53:29;;;;;;;51.35;26.40;;;;;;;0.83;84.76;99662.16;1826139;78;25582;-47
2021/01/01 04:55:57;;;;;;;57.40;25.95;;;;;;;0.82;84.82;99664.02;1826105;78;25661;-46
2021/01/01 04:58:24;;;;;;;56.63;27.25;;;;;;;0.81;84.85;99663.73;1826219;78;25645;-44
2021/01/01 05:00:51;;;;;;;56.08;26.50;;;;;;;0.82;84.92;99668.02;1826063;78;26188;-48
2021/01/01 05:03:18;;;;;;;51.65;26.40;;;;;;;0.83;84.93;99671.47;1798115;78;25827;-47
2021/01/01 05:05:53;;;;;;;52.27;25.77;;;;;;;0.83;84.92;99667.48;1825987;78;26403;-51
2021/01/01 05:08:21;;;;;;;56.65;26.75;;;;;;;0.84;84.92;99670.42;1826014;78;25621;-48
2021/01/01 05:10:49;;;;;;;53.98;25.82;;;;;;;0.82;84.91;99669.34;1826121;78;25673;-49
2021/01/01 05:13:19;;;;;;;51.23;25.85;;;;;;;0.83;84.91;99671.47;1826140;78;26220;-46
2021/01/01 05:15:47;;;;;;;;;;;;;;;0.81;84.80;99677.59;1828241;78;25594;-48
2021/01/01 05:18:20;;;;;;;47.00;24.30;;;;;;;0.80;84.70;99675.98;1826174;78;25629;-48
2021/01/01 05:20:49;;;;;;;50.00;24.37;;;;;;;0.77;84.61;99677.31;1826148;78;25815;-45
2021/01/01 05:23:27;;;;;;;48.93;24.40;;;;;;;0.75;84.64;99680.77;1826389;78;25708;-46
2021/01/01 05:26:13;;;;;;;46.73;24.43;;;;;;;0.74;84.68;99673.83;1826176;78;26166;-46
2021/01/01 05:28:57;;;;;;;52.48;26.77;;;;;;;0.73;84.70;99689.01;1825699;78;25644;-47
2021/01/01 05:31:26;;;;;;;53.17;24.80;;;;;;;0.71;84.67;99681.79;1826094;78;25629;-45
2021/01/01 05:34:00;;;;;;;50.17;24.02;;;;;;;0.70;84.67;99686.86;1826229;78;25700;-44
2021/01/01 05:36:47;;;;;;;56.53;25.65;;;;;;;0.72;84.77;99691.92;1826249;78;25620;-48
2021/01/01 05:39:22;;;;;;;47.58;23.83;;;;;;;0.70;84.71;99687.39;1826241;78;25689;-46
2021/01/01 05:41:53;;;;;;;54.20;26.60;;;;;;;0.70;84.62;99687.39;1826304;78;25644;-47
2021/01/01 05:44:31;;;;;;;52.70;25.70;;;;;;;0.68;84.67;99692.98;1826392;78;25767;-47
2021/01/01 05:47:03;;;;;;;49.98;24.25;;;;;;;0.67;84.74;99689.23;1825938;78;25601;-45
2021/01/01 05:49:41;;;;;;;53.93;24.47;;;;;;;0.75;84.72;99694.08;1847799;76;33167;-47
2021/01/01 05:52:18;;;;;;;51.05;24.92;;;;;;;0.67;84.72;99695.36;1817808;78;25712;-48
2021/01/01 05:54:49;;;;;;;53.05;26.23;;;;;;;0.67;84.62;99699.89;1817770;78;26614;-46
2021/01/01 05:57:19;;;;;;;46.85;23.95;;;;;;;0.67;84.72;99696.69;1817670;78;25675;-47
2021/01/01 05:59:47;;;;;;;49.83;24.32;;;;;;;0.65;84.63;99705.46;1817731;78;25660;-50
2021/01/01 06:02:15;;;;;;;50.83;24.75;;;;;;;0.65;84.62;99703.34;1817640;78;25720;-48
2021/01/01 06:04:42;;;;;;;51.63;25.37;;;;;;;0.64;84.48;99710.50;1817783;78;25680;-47
2021/01/01 06:07:11;;;;;;;47.88;23.67;;;;;;;0.62;84.43;99710.50;1817739;78;26192;-45
2021/01/01 06:09:39;;;;;;;54.87;24.90;;;;;;;0.60;84.47;99707.30;1817944;78;26337;-45
2021/01/01 06:12:12;;;;;;;50.95;24.65;;;;;;;0.59;84.40;99712.34;1817691;78;26342;-44
2021/01/01 06:14:45;;;;;;;49.53;24.12;;;;;;;0.56;84.31;99710.98;1817535;78;25716;-49
2021/01/01 06:17:18;;;;;;;51.10;25.62;;;;;;;0.53;84.41;99705.66;1817760;78;25563;-47
2021/01/01 06:19:51;;;;;;;55.35;25.97;;;;;;;0.50;84.32;99705.37;1817607;78;25690;-49
2021/01/01 06:22:21;;;;;;;47.35;23.70;;;;;;;0.48;84.39;99703.50;1786008;78;25673;-46
2021/01/01 06:24:59;;;;;;;49.70;22.90;;;;;;;0.47;84.52;99708.00;1817591;78;25645;-46
2021/01/01 06:27:29;;;;;;;45.78;22.07;;;;;;;0.48;84.57;99710.95;1817569;78;25693;-50
2021/01/01 06:30:09;;;;;;;47.30;24.20;;;;;;;0.49;84.62;99712.53;1817588;78;25768;-46
2021/01/01 06:32:37;;;;;;;52.00;24.23;;;;;;;0.51;84.65;99713.61;1807335;78;26218;-45
2021/01/01 06:35:23;;;;;;;47.48;23.42;;;;;;;0.51;84.71;99715.77;1785192;80;26272;-46
2021/01/01 06:37:53;;;;;;;53.90;25.85;;;;;;;0.49;84.70;99711.20;1785362;80;25599;-45
2021/01/01 06:40:33;;;;;;;62.17;26.60;;;;;;;0.49;84.71;99708.54;1785404;80;25659;-43
2021/01/01 06:43:06;;;;;;;57.13;26.37;;;;;;;0.50;84.81;99710.16;1785442;80;25651;-46
2021/01/01 06:45:45;;;;;;;52.25;25.30;;;;;;;0.51;84.83;99705.11;1785409;80;26251;-49
2021/01/01 06:48:17;;;;;;;55.85;25.43;;;;;;;0.53;84.83;99711.52;1785374;80;25785;-45
2021/01/01 06:50:45;;;;;;;54.85;25.23;;;;;;;0.53;84.82;99715.51;1781460;80;25647;-44
2021/01/01 06:53:14;;;;;;;58.48;27.42;;;;;;;0.52;84.78;99712.56;1754666;80;25634;-47
2021/01/01 06:55:45;;;;;;;45.73;22.98;;;;;;;0.53;84.79;99708.86;1785375;80;25962;-48
2021/01/01 06:58:14;;;;;;;50.98;25.10;;;;;;;0.53;84.77;99710.98;1785371;80;25727;-49
2021/01/01 07:00:55;;;;;;;58.87;26.37;;;;;;;0.52;84.76;99704.04;1754462;80;26249;-50
2021/01/01 07:03:38;;;;;;;59.20;26.45;;;;;;;0.51;84.54;99706.95;1784865;80;25639;-51
2021/01/01 07:06:10;;;;;;;47.08;23.90;;;;;;;0.49;84.58;99708.54;1784872;80;25645;-47
2021/01/01 07:08:46;;;;;;;54.20;26.70;;;;;;;0.50;84.66;99713.36;1784885;80;25644;-48
2021/01/01 07:11:34;;;;;;;51.95;25.40;;;;;;;0.50;84.60;99709.36;1784976;80;25689;-47
2021/01/01 07:14:09;;;;;;;58.50;25.77;;;;;;;0.51;84.67;99717.60;1784808;80;25983;-47
2021/01/01 07:16:44;;;;;;;52.80;25.92;;;;;;;0.50;84.67;99708.03;1784926;80;25587;-50
2021/01/01 07:19:11;;;;;;;53.30;25.92;;;;;;;0.50;84.68;99709.36;1784918;80;25717;-47
2021/01/01 07:21:39;;;;;;;53.70;26.57;;;;;;;0.49;84.71;99716.52;1784878;80;25639;-50
2021/01/01 07:24:07;;;;;;;49.05;22.87;;;;;;;0.50;84.71;99716.02;1784800;80;26682;-46
2021/01/01 07:26:35;;;;;;;53.70;25.27;;;;;;;0.50;84.60;99717.34;1784654;80;25587;-50
2021/01/01 07:29:04;;;;;;;48.42;24.75;;;;;;;0.51;84.63;99714.94;1784680;78;25602;-50
2021/01/01 07:31:32;;;;;;;45.67;22.85;;;;;;;0.47;84.42;99725.83;1784791;80;27023;-48
2021/01/01 07:34:08;;;;;;;48.50;24.07;;;;;;;0.45;84.48;99719.97;1784726;80;25684;-49
2021/01/01 07:36:35;;;;;;;50.52;22.87;;;;;;;0.44;84.40;99728.46;1784705;80;25949;-49
2021/01/01 07:39:05;;;;;;;52.67;24.23;;;;;;;0.43;84.43;99722.09;1784595;80;25575;-47
2021/01/01 07:41:32;;;;;;;;;;;;;;;0.44;84.52;99725.01;1787447;80;25685;-48
2021/01/01 07:43:58;;;;;;;50.98;22.20;;;;;;;0.43;84.57;99720.23;1784792;78;25760;-47
2021/01/01 07:46:25;;;;;;;53.42;25.00;;;;;;;0.43;84.64;99715.44;1784747;80;25650;-46
2021/01/01 07:48:53;;;;;;;54.27;25.52;;;;;;;0.43;84.61;99714.11;1784586;80;26848;-47
2021/01/01 07:51:21;;;;;;;47.40;23.00;;;;;;;0.43;84.36;99719.43;1784692;78;26288;-47
2021/01/01 07:53:48;;;;;;;50.55;24.50;;;;;;;0.36;84.09;99720.44;1784733;80;25548;-47
2021/01/01 07:56:14;;;;;;;47.75;23.12;;;;;;;0.31;84.01;99719.07;1784656;80;25790;-45
2021/01/01 07:58:43;;;;;;;50.48;23.90;;;;;;;0.29;84.10;99723.86;1784682;80;25584;-46
2021/01/01 08:01:12;;;;;;;53.13;24.67;;;;;;;0.25;84.14;99716.09;1784707;80;25682;-45
2021/01/01 08:03:40;;;;;;;55.53;27.30;;;;;;;0.24;84.41;99711.84;1784869;80;25746;-46
2021/01/01 08:06:08;;;;;;;47.55;25.25;;;;;;;0.25;84.56;99718.75;1784707;80;25661;-47
2021/01/01 08:08:35;;;;;;;54.53;24.23;;;;;;;0.26;84.59;99722.23;1750819;80;26246;-48
2021/01/01 08:11:01;;;;;;;60.12;26.95;;;;;;;0.26;84.63;99720.37;1784626;80;25579;-45
2021/01/01 08:13:33;;;;;;;57.90;27.73;;;;;;;0.28;84.77;99726.23;1784672;80;26238;-46
2021/01/01 08:16:15;;;;;;;54.35;26.50;;;;;;;0.30;84.82;99729.43;1784361;80;25716;-45
2021/01/01 08:18:43;;;;;;;53.85;25.72;;;;;;;0.31;84.70;99732.38;1784509;80;25624;-45
2021/01/01 08:21:10;;;;;;;58.10;25.12;;;;;;;0.33;84.71;99739.57;1784620;80;25672;-48
2021/01/01 08:24:08;;;;;;;55.92;26.45;;;;;;;0.29;84.28;99738.48;1784827;80;25755;-47
2021/01/01 08:26:37;;;;;;;61.77;27.30;;;;;;;0.22;84.06;99735.21;1784678;80;25693;-46
2021/01/01 08:29:09;;;;;;;56.63;27.15;;;;;;;0.20;84.34;99733.87;1784509;80;25593;-49
2021/01/01 08:31:38;;;;;;;59.60;28.80;;;;;;;0.16;84.26;99737.03;1784353;80;25760;-49
2021/01/01 08:34:05;;;;;;;59.40;29.18;;;;;;;0.16;84.60;99746.34;1784758;80;25762;-48
2021/01/01 08:36:35;;;;;;;57.50;27.80;;;;;;;0.18;84.63;99742.90;1784763;80;25753;-48
2021/01/01 08:39:11;;;;;;;67.97;30.15;;;;;;;0.19;84.67;99739.73;1784780;80;25699;-46
2021/01/01 08:41:46;;;;;;;66.40;30.12;;;;;;;0.20;84.74;99744.52;1784526;80;25631;-46
2021/01/01 08:44:16;;;;;;;62.73;28.12;;;;;;;0.23;84.83;99746.14;1784651;80;25696;-46
2021/01/01 08:46:44;;;;;;;60.67;28.50;;;;;;;0.25;84.82;99747.22;1784786;80;32476;-47
2021/01/01 08:49:20;;;;;;;62.10;28.15;;;;;;;0.28;84.87;99752.83;1774862;78;25632;-48
2021/01/01 08:51:49;;;;;;;64.77;28.77;;;;;;;0.26;84.53;99753.62;1757668;81;25766;-45
2021/01/01 08:57:28;;;;;;;68.97;30.07;;;;;;;0.26;84.34;99749.63;1865478;76;33172;-48
2021/01/01 08:59:59;;;;;;;64.17;29.72;;;;;;;0.22;84.62;99754.37;1846424;76;25608;-48
2021/01/01 09:02:32;;;;;;;73.22;31.93;;;;;;;0.22;84.70;99755.16;1852354;77;25701;-48
2021/01/01 09:05:05;;;;;;;72.72;31.57;;;;;;;0.24;84.75;99754.91;1836570;77;25675;-46
2021/01/01 09:07:32;;;;;;;63.20;27.73;;;;;;;0.26;84.90;99756.28;1846878;77;25651;-46
2021/01/01 09:10:17;;;;;;;64.60;29.92;;;;;;;0.28;84.81;99764.80;1852397;77;25733;-51
2021/01/01 09:12:44;;;;;;;63.55;28.75;;;;;;;0.27;84.69;99763.72;1836808;77;25798;-49
2021/01/01 09:15:12;;;;;;;68.12;30.40;;;;;;;0.24;84.48;99765.05;1835459;77;27022;-49
2021/01/01 09:17:39;;;;;;;72.67;30.82;;;;;;;0.25;84.68;99769.83;1818330;77;25633;-46
2021/01/01 09:20:08;;;;;;;66.70;29.95;;;;;;;0.26;84.75;99772.78;1822447;77;25613;-44
2021/01/01 09:22:37;;;;;;;65.42;30.45;;;;;;;0.25;84.93;99770.63;1822450;77;25934;-47
2021/01/01 09:25:23;;;;;;;64.42;29.02;;;;;;;0.31;84.89;99769.62;1825176;77;25718;-47
2021/01/01 09:27:52;;;;;;;75.10;31.52;;;;;;;0.35;84.88;99779.23;1825579;77;25741;-46
2021/01/01 09:30:25;;;;;;;65.83;31.12;;;;;;;0.35;84.92;99773.37;1821950;77;26225;-49
2021/01/01 09:32:55;;;;;;;72.67;32.10;;;;;;;0.36;84.76;99776.85;1820544;77;25629;-48
2021/01/01 09:35:24;;;;;;;76.10;32.58;;;;;;;0.36;84.65;99776.85;1823346;77;25837;-46
2021/01/01 09:37:55;;;;;;;76.82;32.50;;;;;;;0.36;84.70;99778.19;1817522;77;25735;-48
2021/01/01 09:40:25;;;;;;;72.00;32.38;;;;;;;0.37;84.75;99778.44;1827267;77;25698;-50
2021/01/01 09:42:52;;;;;;;79.25;34.73;;;;;;;0.45;84.87;99787.83;1818302;77;25653;-46
2021/01/01 09:45:20;;;;;;;79.12;34.98;;;;;;;0.45;84.87;99787.83;1818889;77;25704;-51
2021/01/01 09:47:47;;;;;;;73.92;32.00;;;;;;;0.45;84.83;99777.98;1830601;76;25600;-46
2021/01/01 09:50:14;;;;;;;72.45;33.95;;;;;;;0.48;84.88;99777.47;1823102;77;25660;-48
2021/01/01 09:52:41;;;;;;;69.65;33.38;;;;;;;0.50;84.87;99772.69;1769692;80;25684;-46
2021/01/01 09:55:09;;;;;;;70.28;32.20;;;;;;;0.55;84.96;99781.25;1759160;80;25744;-48
2021/01/01 09:57:38;;;;;;;77.10;33.02;;;;;;;0.56;84.94;99774.86;1746984;82;25650;-47
2021/01/01 10:00:09;;;;;;;77.20;35.10;;;;;;;0.58;84.78;99772.77;1756005;80;25767;-47
2021/01/01 10:02:37;;;;;;;80.57;36.95;;;;;;;0.59;84.81;99773.02;1777572;80;25650;-46
2021/01/01 10:05:05;;;;;;;75.25;34.65;;;;;;;0.60;84.50;99773.30;1775252;78;26957;-47
2021/01/01 10:07:32;;;;;;;84.32;37.25;;;;;;;0.58;84.42;99771.94;1754331;79;25651;-48
2021/01/01 10:09:59;;;;;;;83.15;36.70;;;;;;;0.59;84.69;99770.90;1783664;78;26249;-47
2021/01/01 10:12:26;;;;;;;81.00;37.75;;;;;;;0.62;84.70;99776.51;1766698;80;25632;-48
2021/01/01 10:14:57;;;;;;;86.15;36.45;;;;;;;0.63;84.62;99766.66;1772574;80;25605;-50
2021/01/01 10:17:28;;;;;;;80.72;36.70;;;;;;;0.64;84.60;99769.06;1779314;78;25701;-47
2021/01/01 10:19:56;;;;;;;81.00;36.20;;;;;;;0.63;84.44;99763.99;1773335;80;25600;-50
2021/01/01 10:22:23;;;;;;;84.10;36.58;;;;;;;0.63;84.51;99760.83;1837338;77;25627;-47
2021/01/01 10:24:49;;;;;;;85.55;38.73;;;;;;;0.63;84.53;99761.33;1849349;77;25609;-46
2021/01/01 10:27:16;;;;;;;81.67;38.02;;;;;;;0.61;84.30;99758.92;1851496;77;25613;-57
2021/01/01 10:29:43;;;;;;;84.32;39.27;;;;;;;0.61;84.36;99760.25;1851371;77;25891;-63
2021/01/01 10:32:13;;;;;;;90.35;37.38;;;;;;;0.62;84.37;99758.41;1840493;77;25644;-54
2021/01/01 10:34:42;;;;;;;82.95;38.02;;;;;;;0.61;84.30;99752.80;1851575;77;25671;-58
2021/01/01 10:37:12;;;;;;;86.70;40.65;;;;;;;0.58;84.05;99754.64;1851703;77;25587;-48
2021/01/01 10:39:41;;;;;;;83.87;39.98;;;;;;;0.57;84.33;99747.73;1844753;77;25825;-60
2021/01/01 10:42:08;;;;;;;79.10;37.67;;;;;;;0.61;84.46;99754.13;1838322;77;25893;-59
2021/01/01 10:44:37;;;;;;;92.70;39.63;;;;;;;0.62;84.45;99750.43;1851504;77;25650;-59
2021/01/01 10:47:04;;;;;;;73.43;31.40;;;;;;;0.63;84.50;99748.84;1851728;77;25663;-60
2021/01/01 10:49:31;;;;;;;84.30;38.28;;;;;;;0.63;84.52;99747.52;1851906;77;25870;-59
2021/01/01 10:51:59;;;;;;;90.20;38.92;;;;;;;0.61;84.19;99743.48;1842655;77;25620;-59
2021/01/01 10:54:27;;;;;;;92.72;39.27;;;;;;;0.59;84.23;99746.94;1845789;77;26741;-59
2021/01/01 10:56:54;;;;;;;82.42;39.13;;;;;;;0.60;84.37;99746.69;1841457;77;25612;-59
2021/01/01 10:59:21;;;;;;;85.05;41.00;;;;;;;0.56;84.13;99746.91;1838537;77;25592;-60
2021/01/01 11:01:48;;;;;;;82.67;37.08;;;;;;;0.51;84.24;99742.37;1838374;77;25543;-60
2021/01/01 11:04:14;;;;;;;80.35;37.10;;;;;;;0.53;84.39;99746.11;1818864;77;36132;-55
2021/01/01 11:06:43;;;;;;;86.80;38.05;;;;;;;0.51;84.20;99740.22;1779673;80;26163;-57
2021/01/01 11:09:09;;;;;;;80.57;37.70;;;;;;;0.47;84.20;99737.81;1785301;80;25591;-60
2021/01/01 11:11:36;;;;;;;80.40;36.93;;;;;;;0.47;84.24;99739.14;1782559;80;25802;-60
2021/01/01 12:25:37;;;;;;;66.97;30.40;;;;;;;0.37;84.55;99759.81;1886507;76;30418;-47
2021/01/01 12:28:05;;;;;;;72.37;30.75;;;;;;;0.28;84.23;99760.81;1857456;77;25585;-61
2021/01/01 12:30:33;;;;;;;62.80;29.07;;;;;;;0.26;84.21;99768.25;1857388;77;26759;-58
2021/01/01 12:33:00;;;;;;;63.80;28.47;;;;;;;0.26;84.37;99762.92;1857279;77;25631;-57
2021/01/01 12:35:27;;;;;;;62.60;28.25;;;;;;;0.26;84.22;99765.59;1824593;77;25624;-58
2021/01/01 12:38:04;;;;;;;55.08;24.18;;;;;;;0.24;84.21;99768.21;1857374;77;25763;-57
2021/01/01 12:40:32;;;;;;;56.58;26.15;;;;;;;0.22;83.95;99771.13;1856392;77;25619;-56
2021/01/01 12:43:01;;;;;;;55.00;24.55;;;;;;;0.16;83.78;99770.82;1824557;77;26322;-58
2021/01/01 12:45:31;;;;;;;57.55;25.52;;;;;;;0.14;83.95;99771.07;1856209;77;30435;-59
2021/01/01 12:47:58;;;;;;;58.05;25.97;;;;;;;0.14;84.04;99779.59;1846440;77;34786;-58